sensor_id;sensor_type;location;lat;lon;timestamp;noise_LAeq;noise_LA_min;noise_LA_max;noise_LA01;noise_LA95
4048;Laerm;2038;51.728;6.674;2023-05-07T00:01:19;41.71;38.81;50.45;;
4048;Laerm;2038;51.728;6.674;2023-05-07T00:03:45;41.23;38.81;43.19;;
4048;Laerm;2038;51.728;6.674;2023-05-07T00:06:11;41.31;37.88;43.44;;
4048;Laerm;2038;51.728;6.674;2023-05-07T00:08:38;42.72;39.08;54.68;;
4048;Laerm;2038;51.728;6.674;2023-05-07T00:11:04;42.13;38.67;53.23;;
4048;Laerm;2038;51.728;6.674;2023-05-07T00:13:31;41.90;38.81;52.97;;
4048;Laerm;2038;51.728;6.674;2023-05-07T00:16:04;41.31;38.67;43.49;;
4048;Laerm;2038;51.728;6.674;2023-05-07T00:18:31;41.47;38.21;43.90;;
4048;Laerm;2038;51.728;6.674;2023-05-07T00:20:57;41.30;38.81;43.24;;
4048;Laerm;2038;51.728;6.674;2023-05-07T00:23:24;42.64;38.52;51.92;;
4048;Laerm;2038;51.728;6.674;2023-05-07T00:25:50;41.31;38.81;43.49;;
4048;Laerm;2038;51.728;6.674;2023-05-07T00:28:16;41.44;38.95;43.72;;
4048;Laerm;2038;51.728;6.674;2023-05-07T00:30:42;42.82;38.37;59.45;;
4048;Laerm;2038;51.728;6.674;2023-05-07T00:33:09;42.25;38.95;54.54;;
4048;Laerm;2038;51.728;6.674;2023-05-07T00:35:35;41.40;38.37;43.39;;
4048;Laerm;2038;51.728;6.674;2023-05-07T00:38:01;43.84;39.08;59.02;;
4048;Laerm;2038;51.728;6.674;2023-05-07T00:40:27;41.30;38.95;43.24;;
4048;Laerm;2038;51.728;6.674;2023-05-07T00:42:53;41.32;38.67;43.44;;
4048;Laerm;2038;51.728;6.674;2023-05-07T00:45:23;41.47;38.95;43.39;;
4048;Laerm;2038;51.728;6.674;2023-05-07T00:47:57;41.53;38.37;46.30;;
4048;Laerm;2038;51.728;6.674;2023-05-07T00:50:25;41.35;38.74;47.30;;
4048;Laerm;2038;51.728;6.674;2023-05-07T00:52:52;41.61;37.52;50.33;;
4048;Laerm;2038;51.728;6.674;2023-05-07T00:55:19;41.87;38.52;50.56;;
4048;Laerm;2038;51.728;6.674;2023-05-07T00:57:46;41.21;38.52;43.04;;
4048;Laerm;2038;51.728;6.674;2023-05-07T01:00:13;41.30;38.81;43.19;;
4048;Laerm;2038;51.728;6.674;2023-05-07T01:02:42;41.27;38.21;43.19;;
4048;Laerm;2038;51.728;6.674;2023-05-07T01:05:14;41.35;38.67;43.81;;
4048;Laerm;2038;51.728;6.674;2023-05-07T01:07:43;41.34;38.95;43.24;;
4048;Laerm;2038;51.728;6.674;2023-05-07T01:10:10;41.97;38.74;52.15;;
4048;Laerm;2038;51.728;6.674;2023-05-07T01:12:40;41.47;38.95;48.76;;
4048;Laerm;2038;51.728;6.674;2023-05-07T01:15:09;42.42;38.37;55.60;;
4048;Laerm;2038;51.728;6.674;2023-05-07T01:17:39;41.34;38.81;43.24;;
4048;Laerm;2038;51.728;6.674;2023-05-07T01:20:07;41.42;38.95;43.44;;
4048;Laerm;2038;51.728;6.674;2023-05-07T01:22:40;41.49;39.21;43.54;;
4048;Laerm;2038;51.728;6.674;2023-05-07T01:25:08;41.35;38.52;43.39;;
4048;Laerm;2038;51.728;6.674;2023-05-07T01:27:35;41.33;38.81;43.44;;
4048;Laerm;2038;51.728;6.674;2023-05-07T01:30:06;41.32;38.52;42.98;;
4048;Laerm;2038;51.728;6.674;2023-05-07T01:32:38;41.78;38.52;49.69;;
4048;Laerm;2038;51.728;6.674;2023-05-07T01:35:12;41.46;38.95;43.58;;
4048;Laerm;2038;51.728;6.674;2023-05-07T01:37:41;41.41;39.08;43.34;;
4048;Laerm;2038;51.728;6.674;2023-05-07T01:40:08;41.60;38.67;47.91;;
4048;Laerm;2038;51.728;6.674;2023-05-07T01:42:35;41.37;38.81;43.09;;
4048;Laerm;2038;51.728;6.674;2023-05-07T01:45:02;42.42;39.34;52.38;;
4048;Laerm;2038;51.728;6.674;2023-05-07T01:47:30;41.40;39.21;43.44;;
4048;Laerm;2038;51.728;6.674;2023-05-07T01:49:57;41.41;38.95;43.24;;
4048;Laerm;2038;51.728;6.674;2023-05-07T01:52:24;41.45;38.81;43.24;;
4048;Laerm;2038;51.728;6.674;2023-05-07T01:54:51;41.45;38.81;43.34;;
4048;Laerm;2038;51.728;6.674;2023-05-07T01:57:17;41.45;38.95;43.42;;
4048;Laerm;2038;51.728;6.674;2023-05-07T01:59:43;41.83;38.52;51.18;;
4048;Laerm;2038;51.728;6.674;2023-05-07T02:02:09;41.41;39.08;43.19;;
4048;Laerm;2038;51.728;6.674;2023-05-07T02:04:35;41.42;38.52;43.24;;
4048;Laerm;2038;51.728;6.674;2023-05-07T02:07:02;41.53;39.08;46.50;;
4048;Laerm;2038;51.728;6.674;2023-05-07T02:09:28;41.43;38.95;43.24;;
4048;Laerm;2038;51.728;6.674;2023-05-07T02:11:55;41.90;39.34;51.66;;
4048;Laerm;2038;51.728;6.674;2023-05-07T02:14:21;41.46;39.34;43.19;;
4048;Laerm;2038;51.728;6.674;2023-05-07T02:16:47;41.55;39.08;43.49;;
4048;Laerm;2038;51.728;6.674;2023-05-07T02:19:13;41.49;39.08;43.19;;
4048;Laerm;2038;51.728;6.674;2023-05-07T02:21:39;41.52;39.08;43.34;;
4048;Laerm;2038;51.728;6.674;2023-05-07T02:24:06;41.63;39.34;43.49;;
4048;Laerm;2038;51.728;6.674;2023-05-07T02:26:32;41.66;38.67;44.58;;
4048;Laerm;2038;51.728;6.674;2023-05-07T02:28:58;41.57;39.08;43.39;;
4048;Laerm;2038;51.728;6.674;2023-05-07T02:31:25;41.47;38.95;43.19;;
4048;Laerm;2038;51.728;6.674;2023-05-07T02:33:51;42.98;39.34;57.38;;
4048;Laerm;2038;51.728;6.674;2023-05-07T02:36:17;41.47;39.08;43.19;;
4048;Laerm;2038;51.728;6.674;2023-05-07T02:38:43;41.50;39.46;43.54;;
4048;Laerm;2038;51.728;6.674;2023-05-07T02:41:09;41.46;38.95;43.19;;
4048;Laerm;2038;51.728;6.674;2023-05-07T02:43:36;41.47;38.81;43.29;;
4048;Laerm;2038;51.728;6.674;2023-05-07T02:46:06;41.53;38.95;43.29;;
4048;Laerm;2038;51.728;6.674;2023-05-07T02:48:33;41.53;39.08;43.39;;
4048;Laerm;2038;51.728;6.674;2023-05-07T02:51:00;41.49;38.95;43.39;;
4048;Laerm;2038;51.728;6.674;2023-05-07T02:53:27;42.23;39.58;51.93;;
4048;Laerm;2038;51.728;6.674;2023-05-07T02:55:58;41.53;38.37;46.58;;
4048;Laerm;2038;51.728;6.674;2023-05-07T02:58:25;41.84;38.81;52.59;;
4048;Laerm;2038;51.728;6.674;2023-05-07T03:00:52;41.49;38.81;43.24;;
4048;Laerm;2038;51.728;6.674;2023-05-07T03:03:20;43.17;38.95;59.33;;
4048;Laerm;2038;51.728;6.674;2023-05-07T03:05:47;43.59;39.34;55.75;;
4048;Laerm;2038;51.728;6.674;2023-05-07T03:08:13;42.15;39.46;53.61;;
4048;Laerm;2038;51.728;6.674;2023-05-07T03:10:39;41.66;39.21;47.00;;
4048;Laerm;2038;51.728;6.674;2023-05-07T03:13:06;42.40;39.46;53.41;;
4048;Laerm;2038;51.728;6.674;2023-05-07T03:15:32;41.65;39.58;50.51;;
4048;Laerm;2038;51.728;6.674;2023-05-07T03:17:58;42.26;39.08;52.65;;
4048;Laerm;2038;51.728;6.674;2023-05-07T03:20:24;42.91;39.34;58.81;;
4048;Laerm;2038;51.728;6.674;2023-05-07T03:22:50;41.75;39.58;46.52;;
4048;Laerm;2038;51.728;6.674;2023-05-07T03:25:17;48.05;40.03;65.32;;
4048;Laerm;2038;51.728;6.674;2023-05-07T03:27:43;42.21;39.34;52.92;;
4048;Laerm;2038;51.728;6.674;2023-05-07T03:30:10;42.29;38.52;52.95;;
4048;Laerm;2038;51.728;6.674;2023-05-07T03:32:37;42.96;39.34;55.84;;
4048;Laerm;2038;51.728;6.674;2023-05-07T03:35:03;42.41;39.70;54.00;;
4048;Laerm;2038;51.728;6.674;2023-05-07T03:37:30;43.09;39.34;53.68;;
4048;Laerm;2038;51.728;6.674;2023-05-07T03:39:56;42.56;39.46;52.38;;
4048;Laerm;2038;51.728;6.674;2023-05-07T03:42:23;42.83;39.58;51.26;;
4048;Laerm;2038;51.728;6.674;2023-05-07T03:44:50;42.94;39.92;52.53;;
4048;Laerm;2038;51.728;6.674;2023-05-07T03:47:16;43.49;39.58;58.71;;
4048;Laerm;2038;51.728;6.674;2023-05-07T03:49:43;42.64;38.81;57.11;;
4048;Laerm;2038;51.728;6.674;2023-05-07T03:52:09;42.73;39.58;53.93;;
4048;Laerm;2038;51.728;6.674;2023-05-07T03:54:35;42.20;39.81;55.51;;
4048;Laerm;2038;51.728;6.674;2023-05-07T03:57:01;41.79;39.70;46.52;;
4048;Laerm;2038;51.728;6.674;2023-05-07T03:59:27;41.72;39.08;43.54;;
4048;Laerm;2038;51.728;6.674;2023-05-07T04:01:54;42.68;39.46;56.26;;
4048;Laerm;2038;51.728;6.674;2023-05-07T04:04:20;41.85;39.46;50.89;;
4048;Laerm;2038;51.728;6.674;2023-05-07T04:06:47;42.66;39.70;54.95;;
4048;Laerm;2038;51.728;6.674;2023-05-07T04:09:13;41.79;39.34;45.27;;
4048;Laerm;2038;51.728;6.674;2023-05-07T04:11:40;43.02;39.58;55.13;;
4048;Laerm;2038;51.728;6.674;2023-05-07T04:14:06;42.82;39.58;53.71;;
4048;Laerm;2038;51.728;6.674;2023-05-07T04:16:34;41.88;39.81;43.81;;
4048;Laerm;2038;51.728;6.674;2023-05-07T04:19:00;42.68;39.21;56.92;;
4048;Laerm;2038;51.728;6.674;2023-05-07T04:21:27;42.44;39.70;51.97;;
4048;Laerm;2038;51.728;6.674;2023-05-07T04:23:53;42.60;39.21;56.13;;
4048;Laerm;2038;51.728;6.674;2023-05-07T04:26:19;42.65;39.58;53.74;;
4048;Laerm;2038;51.728;6.674;2023-05-07T04:28:47;42.85;39.92;53.11;;
4048;Laerm;2038;51.728;6.674;2023-05-07T04:31:13;42.18;39.92;52.98;;
4048;Laerm;2038;51.728;6.674;2023-05-07T04:33:39;43.52;39.92;53.50;;
4048;Laerm;2038;51.728;6.674;2023-05-07T04:36:06;42.50;39.92;50.69;;
4048;Laerm;2038;51.728;6.674;2023-05-07T04:38:32;42.30;39.58;53.44;;
4048;Laerm;2038;51.728;6.674;2023-05-07T04:41:04;42.30;40.03;53.71;;
4048;Laerm;2038;51.728;6.674;2023-05-07T04:43:31;42.60;39.58;51.59;;
4048;Laerm;2038;51.728;6.674;2023-05-07T04:45:57;42.64;40.13;51.19;;
4048;Laerm;2038;51.728;6.674;2023-05-07T04:48:23;42.60;40.03;51.62;;
4048;Laerm;2038;51.728;6.674;2023-05-07T04:50:52;43.17;39.81;60.47;;
4048;Laerm;2038;51.728;6.674;2023-05-07T04:53:19;43.38;40.23;55.46;;
4048;Laerm;2038;51.728;6.674;2023-05-07T04:55:46;43.52;40.43;58.52;;
4048;Laerm;2038;51.728;6.674;2023-05-07T04:58:12;42.82;40.23;48.63;;
4048;Laerm;2038;51.728;6.674;2023-05-07T05:00:39;43.11;40.43;52.21;;
4048;Laerm;2038;51.728;6.674;2023-05-07T05:03:07;43.96;40.43;55.91;;
4048;Laerm;2038;51.728;6.674;2023-05-07T05:05:33;43.53;40.13;52.56;;
4048;Laerm;2038;51.728;6.674;2023-05-07T05:07:59;44.13;40.03;56.02;;
4048;Laerm;2038;51.728;6.674;2023-05-07T05:10:26;43.72;40.62;54.94;;
4048;Laerm;2038;51.728;6.674;2023-05-07T05:12:52;44.00;40.43;55.48;;
4048;Laerm;2038;51.728;6.674;2023-05-07T05:15:18;43.37;40.13;52.91;;
4048;Laerm;2038;51.728;6.674;2023-05-07T05:17:45;43.33;40.33;53.06;;
4048;Laerm;2038;51.728;6.674;2023-05-07T05:20:11;44.34;39.92;63.37;;
4048;Laerm;2038;51.728;6.674;2023-05-07T05:22:38;44.62;40.23;62.86;;
4048;Laerm;2038;51.728;6.674;2023-05-07T05:25:04;43.47;39.81;62.39;;
4048;Laerm;2038;51.728;6.674;2023-05-07T05:27:31;47.40;39.58;66.79;;
4048;Laerm;2038;51.728;6.674;2023-05-07T05:29:57;45.32;39.70;64.47;;
4048;Laerm;2038;51.728;6.674;2023-05-07T05:32:23;45.00;40.03;62.77;;
4048;Laerm;2038;51.728;6.674;2023-05-07T05:34:49;43.53;39.58;62.00;;
4048;Laerm;2038;51.728;6.674;2023-05-07T05:37:16;44.98;39.70;57.79;;
4048;Laerm;2038;51.728;6.674;2023-05-07T05:39:43;43.55;40.23;61.91;;
4048;Laerm;2038;51.728;6.674;2023-05-07T05:42:09;44.38;40.71;65.58;;
4048;Laerm;2038;51.728;6.674;2023-05-07T05:44:35;44.77;40.80;62.49;;
4048;Laerm;2038;51.728;6.674;2023-05-07T05:47:02;43.58;40.33;54.78;;
4048;Laerm;2038;51.728;6.674;2023-05-07T05:49:28;42.95;39.46;51.60;;
4048;Laerm;2038;51.728;6.674;2023-05-07T05:51:55;43.48;40.03;56.15;;
4048;Laerm;2038;51.728;6.674;2023-05-07T05:54:22;43.44;40.03;63.02;;
4048;Laerm;2038;51.728;6.674;2023-05-07T05:56:48;46.34;39.81;63.92;;
4048;Laerm;2038;51.728;6.674;2023-05-07T05:59:15;43.87;39.34;59.92;;
4048;Laerm;2038;51.728;6.674;2023-05-07T06:01:41;44.93;40.03;61.40;;
4048;Laerm;2038;51.728;6.674;2023-05-07T06:04:08;43.02;39.08;56.40;;
4048;Laerm;2038;51.728;6.674;2023-05-07T06:06:34;41.49;38.95;52.49;;
4048;Laerm;2038;51.728;6.674;2023-05-07T06:09:00;41.37;38.67;53.46;;
4048;Laerm;2038;51.728;6.674;2023-05-07T06:11:26;42.01;38.52;50.29;;
4048;Laerm;2038;51.728;6.674;2023-05-07T06:13:53;42.46;38.37;54.44;;
4048;Laerm;2038;51.728;6.674;2023-05-07T06:16:19;42.30;38.52;55.08;;
4048;Laerm;2038;51.728;6.674;2023-05-07T06:18:45;50.63;38.52;66.74;;
4048;Laerm;2038;51.728;6.674;2023-05-07T06:21:13;49.45;39.21;67.31;;
4048;Laerm;2038;51.728;6.674;2023-05-07T06:23:40;45.45;38.52;63.68;;
4048;Laerm;2038;51.728;6.674;2023-05-07T06:26:06;43.62;38.52;58.55;;
4048;Laerm;2038;51.728;6.674;2023-05-07T06:28:33;44.61;38.37;60.20;;
4048;Laerm;2038;51.728;6.674;2023-05-07T06:31:19;44.21;38.95;60.77;;
4048;Laerm;2038;51.728;6.674;2023-05-07T06:33:49;46.33;38.21;63.11;;
4048;Laerm;2038;51.728;6.674;2023-05-07T06:36:15;47.52;38.81;63.79;;
4048;Laerm;2038;51.728;6.674;2023-05-07T06:38:42;43.53;38.02;59.56;;
4048;Laerm;2038;51.728;6.674;2023-05-07T06:41:08;42.12;37.88;51.87;;
4048;Laerm;2038;51.728;6.674;2023-05-07T06:43:35;44.34;38.67;58.41;;
4048;Laerm;2038;51.728;6.674;2023-05-07T06:46:01;45.76;37.87;60.15;;
4048;Laerm;2038;51.728;6.674;2023-05-07T06:48:27;42.55;37.70;53.46;;
4048;Laerm;2038;51.728;6.674;2023-05-07T06:50:54;42.43;38.52;53.69;;
4048;Laerm;2038;51.728;6.674;2023-05-07T06:53:21;40.91;37.88;46.78;;
4048;Laerm;2038;51.728;6.674;2023-05-07T06:55:48;42.35;38.21;58.07;;
4048;Laerm;2038;51.728;6.674;2023-05-07T06:58:14;41.19;37.70;49.72;;
4048;Laerm;2038;51.728;6.674;2023-05-07T07:00:40;40.73;37.88;49.16;;
4048;Laerm;2038;51.728;6.674;2023-05-07T07:03:07;41.68;38.21;52.55;;
4048;Laerm;2038;51.728;6.674;2023-05-07T07:05:33;40.45;37.32;47.81;;
4048;Laerm;2038;51.728;6.674;2023-05-07T07:07:59;43.98;37.88;56.15;;
4048;Laerm;2038;51.728;6.674;2023-05-07T07:10:25;43.81;38.05;55.37;;
4048;Laerm;2038;51.728;6.674;2023-05-07T07:12:52;45.05;37.88;61.15;;
4048;Laerm;2038;51.728;6.674;2023-05-07T07:15:20;45.63;37.70;62.54;;
4048;Laerm;2038;51.728;6.674;2023-05-07T07:17:47;47.17;36.91;63.02;;
4048;Laerm;2038;51.728;6.674;2023-05-07T07:20:14;45.43;37.52;60.98;;
4048;Laerm;2038;51.728;6.674;2023-05-07T07:22:40;44.27;38.21;54.27;;
4048;Laerm;2038;51.728;6.674;2023-05-07T07:25:07;41.65;37.88;52.32;;
4048;Laerm;2038;51.728;6.674;2023-05-07T07:27:33;45.55;37.12;55.08;;
4048;Laerm;2038;51.728;6.674;2023-05-07T07:29:59;43.66;36.91;62.69;;
4048;Laerm;2038;51.728;6.674;2023-05-07T07:32:25;44.84;37.32;60.96;;
4048;Laerm;2038;51.728;6.674;2023-05-07T07:34:52;47.08;37.52;58.95;;
4048;Laerm;2038;51.728;6.674;2023-05-07T07:37:18;45.63;37.12;56.28;;
4048;Laerm;2038;51.728;6.674;2023-05-07T07:39:44;47.27;37.70;58.07;;
4048;Laerm;2038;51.728;6.674;2023-05-07T07:42:11;43.24;37.32;66.95;;
4048;Laerm;2038;51.728;6.674;2023-05-07T07:44:37;45.69;37.12;55.05;;
4048;Laerm;2038;51.728;6.674;2023-05-07T07:47:05;46.93;37.88;59.97;;
4048;Laerm;2038;51.728;6.674;2023-05-07T07:49:31;47.02;37.12;59.61;;
4048;Laerm;2038;51.728;6.674;2023-05-07T07:51:58;41.80;35.66;53.21;;
4048;Laerm;2038;51.728;6.674;2023-05-07T07:54:25;47.69;38.05;59.47;;
4048;Laerm;2038;51.728;6.674;2023-05-07T07:56:51;44.58;38.05;56.09;;
4048;Laerm;2038;51.728;6.674;2023-05-07T07:59:18;50.94;37.12;71.59;;
4048;Laerm;2038;51.728;6.674;2023-05-07T08:01:45;43.21;36.69;53.29;;
4048;Laerm;2038;51.728;6.674;2023-05-07T08:04:11;41.31;36.20;50.73;;
4048;Laerm;2038;51.728;6.674;2023-05-07T08:06:37;42.59;36.20;53.75;;
4048;Laerm;2038;51.728;6.674;2023-05-07T08:09:03;47.48;36.69;59.84;;
4048;Laerm;2038;51.728;6.674;2023-05-07T08:11:30;49.24;36.91;63.56;;
4048;Laerm;2038;51.728;6.674;2023-05-07T08:13:56;44.03;38.21;54.48;;
4048;Laerm;2038;51.728;6.674;2023-05-07T08:16:23;42.53;36.91;55.17;;
4048;Laerm;2038;51.728;6.674;2023-05-07T08:18:49;44.64;36.91;59.64;;
4048;Laerm;2038;51.728;6.674;2023-05-07T08:21:15;45.23;36.91;62.05;;
4048;Laerm;2038;51.728;6.674;2023-05-07T08:23:41;47.57;36.69;66.24;;
4048;Laerm;2038;51.728;6.674;2023-05-07T08:26:08;50.86;39.21;70.75;;
4048;Laerm;2038;51.728;6.674;2023-05-07T08:28:35;47.37;36.69;63.13;;
4048;Laerm;2038;51.728;6.674;2023-05-07T08:31:01;42.77;35.36;55.28;;
4048;Laerm;2038;51.728;6.674;2023-05-07T08:33:27;50.58;37.70;66.90;;
4048;Laerm;2038;51.728;6.674;2023-05-07T08:35:53;40.89;36.91;53.37;;
4048;Laerm;2038;51.728;6.674;2023-05-07T08:38:20;41.05;36.20;54.18;;
4048;Laerm;2038;51.728;6.674;2023-05-07T08:40:47;51.47;36.69;69.67;;
4048;Laerm;2038;51.728;6.674;2023-05-07T08:43:14;42.34;35.94;56.41;;
4048;Laerm;2038;51.728;6.674;2023-05-07T08:45:42;43.78;35.94;56.33;;
4048;Laerm;2038;51.728;6.674;2023-05-07T08:48:16;43.58;36.91;54.02;;
4048;Laerm;2038;51.728;6.674;2023-05-07T08:50:43;44.55;36.77;59.04;;
4048;Laerm;2038;51.728;6.674;2023-05-07T08:53:09;43.86;35.94;59.53;;
4048;Laerm;2038;51.728;6.674;2023-05-07T08:55:35;49.19;36.45;67.23;;
4048;Laerm;2038;51.728;6.674;2023-05-07T08:58:01;41.34;36.45;51.02;;
4048;Laerm;2038;51.728;6.674;2023-05-07T09:00:28;41.76;37.12;51.53;;
4048;Laerm;2038;51.728;6.674;2023-05-07T09:02:54;44.49;37.32;57.93;;
4048;Laerm;2038;51.728;6.674;2023-05-07T09:05:20;47.80;35.94;67.21;;
4048;Laerm;2038;51.728;6.674;2023-05-07T09:07:46;50.57;36.91;65.30;;
4048;Laerm;2038;51.728;6.674;2023-05-07T09:10:13;50.53;37.12;66.86;;
4048;Laerm;2038;51.728;6.674;2023-05-07T09:12:40;50.94;36.69;69.46;;
4048;Laerm;2038;51.728;6.674;2023-05-07T09:15:07;49.72;37.12;66.26;;
4048;Laerm;2038;51.728;6.674;2023-05-07T09:17:34;47.93;37.32;64.19;;
4048;Laerm;2038;51.728;6.674;2023-05-07T09:20:05;44.73;35.94;59.01;;
4048;Laerm;2038;51.728;6.674;2023-05-07T09:22:37;42.75;37.12;53.32;;
4048;Laerm;2038;51.728;6.674;2023-05-07T09:25:06;46.68;37.12;57.34;;
4048;Laerm;2038;51.728;6.674;2023-05-07T09:27:32;48.02;36.69;66.15;;
4048;Laerm;2038;51.728;6.674;2023-05-07T09:29:59;44.05;35.66;54.11;;
4048;Laerm;2038;51.728;6.674;2023-05-07T09:32:25;45.21;35.94;57.87;;
4048;Laerm;2038;51.728;6.674;2023-05-07T09:34:53;50.08;35.66;65.32;;
4048;Laerm;2038;51.728;6.674;2023-05-07T09:37:20;43.28;35.66;54.88;;
4048;Laerm;2038;51.728;6.674;2023-05-07T09:39:49;48.21;36.20;61.00;;
4048;Laerm;2038;51.728;6.674;2023-05-07T09:42:15;50.15;36.91;70.64;;
4048;Laerm;2038;51.728;6.674;2023-05-07T09:44:43;46.02;35.94;63.99;;
4048;Laerm;2038;51.728;6.674;2023-05-07T09:47:11;49.25;36.91;57.93;;
4048;Laerm;2038;51.728;6.674;2023-05-07T09:49:40;44.81;36.45;57.28;;
4048;Laerm;2038;51.728;6.674;2023-05-07T09:52:08;49.75;35.36;64.79;;
4048;Laerm;2038;51.728;6.674;2023-05-07T09:54:37;44.29;35.36;55.29;;
4048;Laerm;2038;51.728;6.674;2023-05-07T09:57:07;43.84;34.69;56.08;;
4048;Laerm;2038;51.728;6.674;2023-05-07T09:59:37;46.64;34.69;66.95;;
4048;Laerm;2038;51.728;6.674;2023-05-07T10:02:04;45.14;36.45;59.46;;
4048;Laerm;2038;51.728;6.674;2023-05-07T10:04:32;44.20;36.69;57.12;;
4048;Laerm;2038;51.728;6.674;2023-05-07T10:06:59;52.01;35.94;69.34;;
4048;Laerm;2038;51.728;6.674;2023-05-07T10:09:26;49.91;35.66;67.34;;
4048;Laerm;2038;51.728;6.674;2023-05-07T10:11:54;51.46;36.69;69.23;;
4048;Laerm;2038;51.728;6.674;2023-05-07T10:14:21;50.78;36.20;67.35;;
4048;Laerm;2038;51.728;6.674;2023-05-07T10:16:48;47.00;35.04;62.34;;
4048;Laerm;2038;51.728;6.674;2023-05-07T10:19:16;51.49;35.04;65.94;;
4048;Laerm;2038;51.728;6.674;2023-05-07T10:21:55;47.67;36.69;62.67;;
4048;Laerm;2038;51.728;6.674;2023-05-07T10:24:30;47.75;35.94;65.63;;
4048;Laerm;2038;51.728;6.674;2023-05-07T10:27:01;46.73;35.94;62.86;;
4048;Laerm;2038;51.728;6.674;2023-05-07T10:30:15;44.46;35.36;61.25;;
4048;Laerm;2038;51.728;6.674;2023-05-07T10:32:53;45.49;35.94;59.39;;
4048;Laerm;2038;51.728;6.674;2023-05-07T10:35:29;44.85;34.69;57.16;;
4048;Laerm;2038;51.728;6.674;2023-05-07T10:37:57;46.14;35.86;58.15;;
4048;Laerm;2038;51.728;6.674;2023-05-07T10:40:24;44.18;35.04;58.38;;
4048;Laerm;2038;51.728;6.674;2023-05-07T10:42:58;49.04;35.94;63.48;;
4048;Laerm;2038;51.728;6.674;2023-05-07T10:45:29;45.47;35.94;56.38;;
4048;Laerm;2038;51.728;6.674;2023-05-07T10:48:15;44.09;35.04;56.06;;
4048;Laerm;2038;51.728;6.674;2023-05-07T10:50:44;45.95;36.91;56.25;;
4048;Laerm;2038;51.728;6.674;2023-05-07T10:58:54;46.25;35.94;62.15;;
4048;Laerm;2038;51.728;6.674;2023-05-07T11:02:02;54.12;35.66;75.92;;
4048;Laerm;2038;51.728;6.674;2023-05-07T11:04:30;49.89;35.94;65.50;;
4048;Laerm;2038;51.728;6.674;2023-05-07T11:10:02;46.18;36.10;58.26;;
4048;Laerm;2038;51.728;6.674;2023-05-07T11:15:11;49.78;35.04;67.14;;
4048;Laerm;2038;51.728;6.674;2023-05-07T11:17:55;42.54;34.31;54.71;;
4048;Laerm;2038;51.728;6.674;2023-05-07T11:20:49;47.09;35.04;60.73;;
4048;Laerm;2038;51.728;6.674;2023-05-07T11:26:08;48.08;35.94;61.15;;
4048;Laerm;2038;51.728;6.674;2023-05-07T11:28:42;51.50;35.66;65.80;;
4048;Laerm;2038;51.728;6.674;2023-05-07T11:31:09;45.84;35.04;55.30;;
4048;Laerm;2038;51.728;6.674;2023-05-07T11:33:37;44.89;36.45;57.75;;
4048;Laerm;2038;51.728;6.674;2023-05-07T11:36:05;43.04;35.66;55.16;;
4048;Laerm;2038;51.728;6.674;2023-05-07T11:38:37;42.97;35.59;55.18;;
4048;Laerm;2038;51.728;6.674;2023-05-07T11:41:05;43.43;35.36;57.57;;
4048;Laerm;2038;51.728;6.674;2023-05-07T11:43:32;48.11;36.91;63.49;;
4048;Laerm;2038;51.728;6.674;2023-05-07T11:46:19;46.55;35.66;58.70;;
4048;Laerm;2038;51.728;6.674;2023-05-07T11:48:46;43.52;36.69;54.25;;
4048;Laerm;2038;51.728;6.674;2023-05-07T11:51:12;43.48;35.66;53.64;;
4048;Laerm;2038;51.728;6.674;2023-05-07T11:53:41;47.36;36.20;65.20;;
4048;Laerm;2038;51.728;6.674;2023-05-07T11:56:10;46.64;36.20;62.18;;
4048;Laerm;2038;51.728;6.674;2023-05-07T11:58:37;43.32;35.66;54.26;;
4048;Laerm;2038;51.728;6.674;2023-05-07T12:01:04;45.89;36.91;55.54;;
4048;Laerm;2038;51.728;6.674;2023-05-07T12:03:30;43.88;34.69;65.10;;
4048;Laerm;2038;51.728;6.674;2023-05-07T12:05:56;43.62;36.20;54.77;;
4048;Laerm;2038;51.728;6.674;2023-05-07T12:08:23;45.76;36.45;58.48;;
4048;Laerm;2038;51.728;6.674;2023-05-07T12:10:50;45.23;36.20;57.59;;
4048;Laerm;2038;51.728;6.674;2023-05-07T12:13:21;46.29;36.45;57.89;;
4048;Laerm;2038;51.728;6.674;2023-05-07T12:15:55;48.23;35.94;63.71;;
4048;Laerm;2038;51.728;6.674;2023-05-07T12:18:23;44.75;35.66;54.82;;
4048;Laerm;2038;51.728;6.674;2023-05-07T12:20:50;49.24;35.94;63.90;;
4048;Laerm;2038;51.728;6.674;2023-05-07T12:23:17;45.44;35.66;55.41;;
4048;Laerm;2038;51.728;6.674;2023-05-07T12:25:44;45.71;36.20;58.07;;
4048;Laerm;2038;51.728;6.674;2023-05-07T12:28:18;47.63;35.04;65.94;;
4048;Laerm;2038;51.728;6.674;2023-05-07T12:30:47;47.44;34.69;58.52;;
4048;Laerm;2038;51.728;6.674;2023-05-07T12:33:24;45.89;36.45;57.78;;
4048;Laerm;2038;51.728;6.674;2023-05-07T12:35:53;46.30;35.04;59.00;;
4048;Laerm;2038;51.728;6.674;2023-05-07T12:38:19;45.56;35.04;59.73;;
4048;Laerm;2038;51.728;6.674;2023-05-07T12:40:48;42.24;34.31;51.61;;
4048;Laerm;2038;51.728;6.674;2023-05-07T12:43:24;43.92;35.36;56.88;;
4048;Laerm;2038;51.728;6.674;2023-05-07T12:45:54;47.06;35.94;56.48;;
4048;Laerm;2038;51.728;6.674;2023-05-07T12:48:22;45.26;35.66;55.20;;
4048;Laerm;2038;51.728;6.674;2023-05-07T12:50:53;45.83;36.20;60.04;;
4048;Laerm;2038;51.728;6.674;2023-05-07T12:53:25;50.80;37.70;64.20;;
4048;Laerm;2038;51.728;6.674;2023-05-07T12:55:57;50.21;35.36;63.86;;
4048;Laerm;2038;51.728;6.674;2023-05-07T12:58:30;45.83;35.66;57.57;;
4048;Laerm;2038;51.728;6.674;2023-05-07T13:01:00;46.53;36.45;55.98;;
4048;Laerm;2038;51.728;6.674;2023-05-07T13:03:29;46.82;35.66;56.99;;
4048;Laerm;2038;51.728;6.674;2023-05-07T13:06:07;44.55;35.94;55.79;;
4048;Laerm;2038;51.728;6.674;2023-05-07T13:08:40;45.14;36.45;56.22;;
4048;Laerm;2038;51.728;6.674;2023-05-07T13:11:10;46.19;36.69;62.63;;
4048;Laerm;2038;51.728;6.674;2023-05-07T13:13:38;43.79;35.31;55.48;;
4048;Laerm;2038;51.728;6.674;2023-05-07T13:16:09;44.25;34.69;55.28;;
4048;Laerm;2038;51.728;6.674;2023-05-07T13:18:38;43.65;33.44;60.91;;
4048;Laerm;2038;51.728;6.674;2023-05-07T13:21:05;47.57;34.69;61.76;;
4048;Laerm;2038;51.728;6.674;2023-05-07T13:23:31;48.14;36.20;58.64;;
4048;Laerm;2038;51.728;6.674;2023-05-07T13:25:58;47.84;36.10;64.92;;
4048;Laerm;2038;51.728;6.674;2023-05-07T13:28:24;48.00;35.04;65.95;;
4048;Laerm;2038;51.728;6.674;2023-05-07T13:30:52;47.04;36.98;62.17;;
4048;Laerm;2038;51.728;6.674;2023-05-07T13:33:19;46.33;36.20;59.50;;
4048;Laerm;2038;51.728;6.674;2023-05-07T13:35:45;44.11;35.66;56.92;;
4048;Laerm;2038;51.728;6.674;2023-05-07T13:38:11;44.12;35.94;56.02;;
4048;Laerm;2038;51.728;6.674;2023-05-07T13:40:37;43.87;35.36;55.31;;
4048;Laerm;2038;51.728;6.674;2023-05-07T13:43:05;43.50;34.31;55.97;;
4048;Laerm;2038;51.728;6.674;2023-05-07T13:45:32;48.22;35.04;60.82;;
4048;Laerm;2038;51.728;6.674;2023-05-07T13:47:58;53.90;36.45;72.45;;
4048;Laerm;2038;51.728;6.674;2023-05-07T13:50:24;45.98;36.45;57.07;;
4048;Laerm;2038;51.728;6.674;2023-05-07T13:52:52;48.16;36.69;67.09;;
4048;Laerm;2038;51.728;6.674;2023-05-07T13:55:20;47.32;35.04;59.28;;
4048;Laerm;2038;51.728;6.674;2023-05-07T13:57:47;46.27;35.66;62.01;;
4048;Laerm;2038;51.728;6.674;2023-05-07T14:00:14;46.72;36.20;56.98;;
4048;Laerm;2038;51.728;6.674;2023-05-07T14:02:42;50.62;35.94;68.34;;
4048;Laerm;2038;51.728;6.674;2023-05-07T14:05:08;44.73;35.66;55.49;;
4048;Laerm;2038;51.728;6.674;2023-05-07T14:07:36;47.79;36.45;61.60;;
4048;Laerm;2038;51.728;6.674;2023-05-07T14:10:02;46.40;36.10;56.54;;
4048;Laerm;2038;51.728;6.674;2023-05-07T14:12:29;43.60;35.66;58.60;;
4048;Laerm;2038;51.728;6.674;2023-05-07T14:14:55;42.79;35.94;54.89;;
4048;Laerm;2038;51.728;6.674;2023-05-07T14:17:22;43.49;35.94;57.10;;
4048;Laerm;2038;51.728;6.674;2023-05-07T14:19:51;45.59;36.91;59.68;;
4048;Laerm;2038;51.728;6.674;2023-05-07T14:22:21;47.08;36.45;58.31;;
4048;Laerm;2038;51.728;6.674;2023-05-07T14:24:49;44.81;36.45;55.54;;
4048;Laerm;2038;51.728;6.674;2023-05-07T14:27:16;45.15;36.20;57.62;;